Rock Grove, Illinois
Current Conditions -  °F | °C
As of 1:15 AM on Thursday 18 Dec 2014 (Local Time) from KFEP Reporting Station
Clear Clear  
Wind Chill:   Ceiling: Unl
Heat Index: 15°   Visibility: 10mi
Dew Point: 13°   Wind: 5mph
Humidity: 89%   Direction: 250°WSW
Pressure: 30.31"   Gusts: NA
Location:  42.4147°N, 89.4715°W
Report Text: KFEP 180715Z AUTO 25004KT 10SM CLR M09/M11 A3031 RMK AO2 T10931108
Loading
Personal Weather Stations






























Interactive Weather Map New forecast layout! Learn more

10-Day Weather Forecast

Advertisements
Track Severe Weather on mobile